createdAt,value
2018-08-09T00:01:19.642Z,22.38
2018-08-09T00:03:48.434Z,22.36
2018-08-09T00:06:17.243Z,22.32
2018-08-09T00:08:46.031Z,22.30
2018-08-09T00:11:14.812Z,22.28
2018-08-09T00:13:43.576Z,22.29
2018-08-09T00:16:12.319Z,22.25
2018-08-09T00:18:41.028Z,22.29
2018-08-09T00:21:09.801Z,22.25
2018-08-09T00:23:38.573Z,22.26
2018-08-09T00:26:07.778Z,22.32
2018-08-09T00:28:36.575Z,22.31
2018-08-09T00:31:05.355Z,22.33
2018-08-09T00:33:34.107Z,22.33
2018-08-09T00:36:02.866Z,22.37
2018-08-09T00:38:31.644Z,22.36
2018-08-09T00:41:00.375Z,22.37
2018-08-09T00:43:29.142Z,22.40
2018-08-09T00:45:58.161Z,22.26
2018-08-09T00:48:26.935Z,22.17
2018-08-09T00:50:56.159Z,22.08
2018-08-09T00:53:24.938Z,22.07
2018-08-09T00:55:53.713Z,22.04
2018-08-09T00:58:22.457Z,21.96
2018-08-09T01:00:51.239Z,21.90
2018-08-09T01:03:19.969Z,21.88
2018-08-09T01:05:48.739Z,21.88
2018-08-09T01:08:17.575Z,21.85
2018-08-09T01:10:46.317Z,21.83
2018-08-09T01:13:15.481Z,21.79
2018-08-09T01:15:44.676Z,21.79
2018-08-09T01:18:13.454Z,21.79
2018-08-09T01:20:42.290Z,21.77
2018-08-09T01:23:11.110Z,21.78
2018-08-09T01:25:39.894Z,21.74
2018-08-09T01:28:08.638Z,21.76
2018-08-09T01:30:37.367Z,21.80
2018-08-09T01:33:06.639Z,21.82
2018-08-09T01:35:37.396Z,21.82
2018-08-09T01:38:08.228Z,21.83
2018-08-09T01:40:38.303Z,21.76
2018-08-09T01:43:18.530Z,21.74
2018-08-09T01:45:49.565Z,21.75
2018-08-09T01:48:18.403Z,21.75
2018-08-09T01:50:47.263Z,21.74
2018-08-09T01:53:16.027Z,21.78
2018-08-09T01:55:44.747Z,21.77
2018-08-09T01:58:13.542Z,21.78
2018-08-09T02:00:42.350Z,21.74
2018-08-09T02:03:11.124Z,21.74
2018-08-09T02:05:39.874Z,21.75
2018-08-09T02:08:08.614Z,21.73
2018-08-09T02:10:37.363Z,21.71
2018-08-09T02:13:06.174Z,21.68
2018-08-09T02:15:34.937Z,21.65
2018-08-09T02:18:03.831Z,21.58
2018-08-09T02:20:32.595Z,21.53
2018-08-09T02:23:01.389Z,21.51
2018-08-09T02:25:30.180Z,21.43
2018-08-09T02:27:58.999Z,21.46
2018-08-09T02:30:27.731Z,21.46
2018-08-09T02:32:56.515Z,21.41
2018-08-09T02:35:25.315Z,21.36
2018-08-09T02:37:54.075Z,21.39
2018-08-09T02:40:22.847Z,21.36
2018-08-09T02:42:51.570Z,21.36
2018-08-09T02:45:20.351Z,21.36
2018-08-09T02:47:49.111Z,21.33
2018-08-09T02:50:17.952Z,21.37
2018-08-09T02:52:46.743Z,21.32
2018-08-09T02:55:15.575Z,21.28
2018-08-09T02:57:44.313Z,21.28
2018-08-09T03:00:13.550Z,21.26
2018-08-09T03:02:42.373Z,21.24
2018-08-09T03:05:11.172Z,21.25
2018-08-09T03:07:40.012Z,21.28
2018-08-09T03:10:08.810Z,21.26
2018-08-09T03:12:37.550Z,21.24
2018-08-09T03:15:06.736Z,21.21
2018-08-09T03:17:35.602Z,21.16
2018-08-09T03:20:04.486Z,21.12
2018-08-09T03:22:33.267Z,21.11
2018-08-09T03:25:02.092Z,21.03
2018-08-09T03:27:31.228Z,20.89
2018-08-09T03:30:00.053Z,20.78
2018-08-09T03:32:29.001Z,20.79
2018-08-09T03:34:58.181Z,20.82
2018-08-09T03:37:26.921Z,20.85
2018-08-09T03:39:55.698Z,20.89
2018-08-09T03:42:24.437Z,20.94
2018-08-09T03:44:53.198Z,20.97
2018-08-09T03:47:21.880Z,20.99
2018-08-09T03:49:50.675Z,21.02
2018-08-09T03:52:23.152Z,21.10
2018-08-09T03:54:51.929Z,21.12
2018-08-09T03:57:20.760Z,21.12
2018-08-09T03:59:49.534Z,21.20
2018-08-09T04:02:18.428Z,21.26
2018-08-09T04:04:47.226Z,21.35
2018-08-09T04:07:15.987Z,21.36
2018-08-09T04:09:44.792Z,21.43
2018-08-09T04:12:13.602Z,21.45
2018-08-09T04:14:48.870Z,21.46
2018-08-09T04:17:19.837Z,21.53
2018-08-09T04:19:49.805Z,21.65
2018-08-09T04:22:18.951Z,21.75
2018-08-09T04:24:48.267Z,21.83
2018-08-09T04:27:17.347Z,21.87
2018-08-09T04:29:46.169Z,21.88
2018-08-09T04:32:15.014Z,21.89
2018-08-09T04:34:43.784Z,21.94
2018-08-09T04:37:12.548Z,22.06
2018-08-09T04:39:41.339Z,22.20
2018-08-09T04:42:10.216Z,22.48
2018-08-09T04:44:39.004Z,23.04
2018-08-09T04:47:07.822Z,23.78
2018-08-09T04:49:36.617Z,24.39
2018-08-09T04:52:05.512Z,25.08
2018-08-09T04:54:34.263Z,25.90
2018-08-09T04:57:03.090Z,26.17
2018-08-09T04:59:31.960Z,26.55
2018-08-09T05:02:00.805Z,27.01
2018-08-09T05:04:29.564Z,27.09
2018-08-09T05:06:58.380Z,27.13
2018-08-09T05:09:27.142Z,27.40
2018-08-09T05:11:55.940Z,27.46
2018-08-09T05:14:24.853Z,27.42
2018-08-09T05:16:53.786Z,27.47
2018-08-09T05:19:22.575Z,28.00
2018-08-09T05:21:51.330Z,28.33
2018-08-09T05:24:20.116Z,28.44
2018-08-09T05:26:48.976Z,28.13
2018-08-09T05:29:17.862Z,27.80
2018-08-09T05:31:46.681Z,27.58
2018-08-09T05:34:15.506Z,26.99
2018-08-09T05:36:44.431Z,26.84
2018-08-09T05:39:13.223Z,26.51
2018-08-09T05:41:42.450Z,26.11
2018-08-09T05:44:11.639Z,25.99
2018-08-09T05:46:40.427Z,26.09
2018-08-09T05:49:15.647Z,25.94
2018-08-09T05:51:44.425Z,25.92
2018-08-09T05:54:13.268Z,25.82
2018-08-09T05:56:41.990Z,25.77
2018-08-09T05:59:10.925Z,25.54
2018-08-09T06:01:39.774Z,24.99
2018-08-09T06:04:08.635Z,24.97
2018-08-09T06:06:37.441Z,24.65
2018-08-09T06:09:09.330Z,24.81
2018-08-09T06:11:38.113Z,25.00
2018-08-09T06:14:07.291Z,25.13
2018-08-09T06:16:36.075Z,25.01
2018-08-09T06:19:05.511Z,24.81
2018-08-09T06:21:34.338Z,24.68
2018-08-09T06:24:03.182Z,24.75
2018-08-09T06:26:32.000Z,24.84
2018-08-09T06:29:00.958Z,24.78
2018-08-09T06:31:30.187Z,24.77
2018-08-09T06:33:58.917Z,24.81
2018-08-09T06:36:27.895Z,24.81
2018-08-09T06:38:57.093Z,24.87
2018-08-09T06:41:25.911Z,24.75
2018-08-09T06:43:55.089Z,24.71
2018-08-09T06:46:23.899Z,24.72
2018-08-09T06:48:52.856Z,24.85
2018-08-09T06:51:21.642Z,24.97
2018-08-09T06:53:50.381Z,24.98
2018-08-09T06:56:19.215Z,24.99
2018-08-09T06:58:48.210Z,25.05
2018-08-09T07:01:17.010Z,25.24
2018-08-09T07:03:45.933Z,25.37
2018-08-09T07:06:14.672Z,25.50
2018-08-09T07:08:44.532Z,25.67
2018-08-09T07:11:13.323Z,25.57
2018-08-09T07:13:42.184Z,25.48
2018-08-09T07:16:11.487Z,25.55
2018-08-09T07:18:40.318Z,25.59
2018-08-09T07:21:09.337Z,25.52
2018-08-09T07:23:38.340Z,25.51
2018-08-09T07:26:07.094Z,25.58
2018-08-09T07:28:35.948Z,25.62
2018-08-09T07:31:04.788Z,25.74
2018-08-09T07:33:33.624Z,25.79
2018-08-09T07:36:02.439Z,25.97
2018-08-09T07:38:31.191Z,26.13
2018-08-09T07:41:00.019Z,26.18
2018-08-09T07:43:28.756Z,26.19
2018-08-09T07:45:57.569Z,26.26
2018-08-09T07:48:26.394Z,26.31
2018-08-09T07:50:55.366Z,26.26
2018-08-09T07:53:24.323Z,26.26
2018-08-09T07:55:53.090Z,26.26
2018-08-09T07:58:21.911Z,26.34
2018-08-09T08:00:50.797Z,26.37
2018-08-09T08:03:19.794Z,26.27
2018-08-09T08:05:48.749Z,26.28
2018-08-09T08:08:17.712Z,26.43
2018-08-09T08:10:48.227Z,26.49
2018-08-09T08:13:18.670Z,26.42
2018-08-09T08:15:47.607Z,26.41
2018-08-09T08:18:16.359Z,26.48
2018-08-09T08:20:45.592Z,26.54
2018-08-09T08:23:14.524Z,26.42
2018-08-09T08:25:43.285Z,26.19
2018-08-09T08:28:12.073Z,26.16
2018-08-09T08:30:40.839Z,26.15
2018-08-09T08:33:09.698Z,26.20
2018-08-09T08:35:38.446Z,26.33
2018-08-09T08:38:07.892Z,26.38
2018-08-09T08:40:36.682Z,26.49
2018-08-09T08:43:05.792Z,26.66
2018-08-09T08:45:34.955Z,26.63
2018-08-09T08:48:04.505Z,26.70
2018-08-09T08:50:33.320Z,26.78
2018-08-09T08:53:02.124Z,26.77
2018-08-09T08:55:31.243Z,26.85
2018-08-09T08:58:00.074Z,26.73
2018-08-09T09:00:28.919Z,26.86
2018-08-09T09:02:57.741Z,26.93
2018-08-09T09:05:26.908Z,26.94
2018-08-09T09:07:56.063Z,27.08
2018-08-09T09:10:24.969Z,27.00
2018-08-09T09:12:53.955Z,27.05
2018-08-09T09:15:22.882Z,27.26
2018-08-09T09:17:51.629Z,27.43
2018-08-09T09:20:20.415Z,27.47
2018-08-09T09:22:49.231Z,27.44
2018-08-09T09:25:17.964Z,27.49
2018-08-09T09:27:47.095Z,27.47
2018-08-09T09:30:17.184Z,27.40
2018-08-09T09:32:46.663Z,27.35
2018-08-09T09:35:15.490Z,27.38
2018-08-09T09:37:44.755Z,27.39
2018-08-09T09:40:13.636Z,27.35
2018-08-09T09:42:42.782Z,27.30
2018-08-09T09:45:11.551Z,27.35
2018-08-09T09:47:40.305Z,27.43
2018-08-09T09:50:10.428Z,27.42
2018-08-09T09:52:39.356Z,27.39
2018-08-09T09:55:08.164Z,27.50
2018-08-09T09:57:37.298Z,27.63
2018-08-09T10:00:12.245Z,27.74
2018-08-09T10:02:41.125Z,27.77
2018-08-09T10:05:09.879Z,27.83
2018-08-09T10:07:39.367Z,27.79
2018-08-09T10:10:08.438Z,27.69
2018-08-09T10:12:37.333Z,27.75
2018-08-09T10:15:06.326Z,28.01
2018-08-09T10:17:35.576Z,28.18
2018-08-09T10:20:04.590Z,28.09
2018-08-09T10:22:33.450Z,28.14
2018-08-09T10:25:02.282Z,28.09
2018-08-09T10:27:31.454Z,28.02
2018-08-09T10:30:00.385Z,28.20
2018-08-09T10:32:29.726Z,28.34
2018-08-09T10:38:19.989Z,28.29
2018-08-09T10:40:48.821Z,28.30
2018-08-09T10:43:17.665Z,28.27
2018-08-09T10:45:46.486Z,28.20
2018-08-09T10:48:15.330Z,28.27
2018-08-09T10:50:44.324Z,28.39
2018-08-09T10:53:13.127Z,28.27
2018-08-09T10:55:42.043Z,28.26
2018-08-09T10:58:11.057Z,28.28
2018-08-09T11:00:39.796Z,28.32
2018-08-09T11:03:08.537Z,28.52
2018-08-09T11:05:37.359Z,28.55
2018-08-09T11:08:06.311Z,28.56
2018-08-09T11:10:35.045Z,28.75
2018-08-09T11:13:03.826Z,28.82
2018-08-09T11:15:32.616Z,28.95
2018-08-09T11:18:01.505Z,28.88
2018-08-09T11:20:30.337Z,28.87
2018-08-09T11:22:59.139Z,28.84
2018-08-09T11:25:28.309Z,28.78
2018-08-09T11:27:57.066Z,28.64
2018-08-09T11:30:25.838Z,28.64
2018-08-09T11:32:54.613Z,28.55
2018-08-09T11:35:23.378Z,28.65
2018-08-09T11:37:52.218Z,28.38
2018-08-09T11:40:21.011Z,28.58
2018-08-09T11:42:49.782Z,28.62
2018-08-09T11:45:18.619Z,28.62
2018-08-09T11:47:47.388Z,28.65
2018-08-09T11:50:16.186Z,28.70
2018-08-09T11:52:45.348Z,28.74
2018-08-09T11:55:14.106Z,28.79
2018-08-09T11:57:42.863Z,28.98
2018-08-09T12:00:11.874Z,29.05
2018-08-09T12:02:40.653Z,28.90
2018-08-09T12:05:09.448Z,28.59
2018-08-09T12:07:38.263Z,28.49
2018-08-09T12:10:07.487Z,28.57
2018-08-09T12:12:36.279Z,28.76
2018-08-09T12:15:06.170Z,28.84
2018-08-09T12:17:35.382Z,29.06
2018-08-09T12:20:04.801Z,29.10
2018-08-09T12:22:33.733Z,28.79
2018-08-09T12:25:02.921Z,28.60
2018-08-09T12:27:31.722Z,28.30
2018-08-09T12:30:00.502Z,28.35
2018-08-09T12:32:29.423Z,28.36
2018-08-09T12:34:58.206Z,28.41
2018-08-09T12:37:27.094Z,28.60
2018-08-09T12:39:55.851Z,28.73
2018-08-09T12:42:24.712Z,28.88
2018-08-09T12:44:53.619Z,28.88
2018-08-09T12:47:22.403Z,28.87
2018-08-09T12:49:51.947Z,28.93
2018-08-09T12:52:23.641Z,28.92
2018-08-09T12:54:52.452Z,28.91
2018-08-09T12:57:21.251Z,29.00
2018-08-09T12:59:50.092Z,29.02
2018-08-09T13:02:19.316Z,28.97
2018-08-09T13:04:48.086Z,28.97
2018-08-09T13:07:16.879Z,28.84
2018-08-09T13:09:45.762Z,28.82
2018-08-09T13:12:15.208Z,28.83
2018-08-09T13:14:44.043Z,28.87
2018-08-09T13:17:12.820Z,28.80
2018-08-09T13:19:41.702Z,28.93
2018-08-09T13:22:10.474Z,28.97
2018-08-09T13:24:39.281Z,28.93
2018-08-09T13:27:08.243Z,29.01
2018-08-09T13:29:37.027Z,29.10
2018-08-09T13:32:05.818Z,29.23
2018-08-09T13:34:34.540Z,29.09
2018-08-09T13:37:03.740Z,29.02
2018-08-09T13:39:32.557Z,29.13
2018-08-09T13:42:01.726Z,29.16
2018-08-09T13:44:30.586Z,29.24
2018-08-09T13:46:59.373Z,29.12
2018-08-09T13:49:28.894Z,29.03
2018-08-09T13:51:57.656Z,29.09
2018-08-09T13:54:26.821Z,29.05
2018-08-09T13:56:55.610Z,29.15
2018-08-09T13:59:24.455Z,29.27
2018-08-09T14:01:53.282Z,29.36
2018-08-09T14:04:22.278Z,29.40
2018-08-09T14:06:51.083Z,29.40
2018-08-09T14:09:19.855Z,29.39
2018-08-09T14:11:48.639Z,29.21
2018-08-09T14:14:17.483Z,29.26
2018-08-09T14:16:46.286Z,29.30
2018-08-09T14:19:15.090Z,29.36
2018-08-09T14:21:44.231Z,29.42
2018-08-09T14:24:17.045Z,29.31
2018-08-09T14:26:48.949Z,29.22
2018-08-09T14:29:17.741Z,29.15
2018-08-09T14:31:47.042Z,29.22
2018-08-09T14:34:16.027Z,29.26
2018-08-09T14:36:44.937Z,29.37
2018-08-09T14:39:13.775Z,29.51
2018-08-09T14:41:42.972Z,29.56
2018-08-09T14:44:11.742Z,29.36
2018-08-09T14:46:40.606Z,29.29
2018-08-09T14:49:09.468Z,29.07
2018-08-09T14:51:38.376Z,28.98
2018-08-09T14:54:07.304Z,29.01
2018-08-09T14:56:36.187Z,29.07
2018-08-09T14:59:05.741Z,29.20
2018-08-09T15:01:34.656Z,29.23
2018-08-09T15:04:03.564Z,29.06
2018-08-09T15:06:32.441Z,29.12
2018-08-09T15:09:09.612Z,29.29
2018-08-09T15:11:38.596Z,29.37
2018-08-09T15:14:08.212Z,29.14
2018-08-09T15:16:37.481Z,29.05
2018-08-09T15:19:06.407Z,28.95
2018-08-09T15:21:35.292Z,28.88
2018-08-09T15:24:04.159Z,28.76
2018-08-09T15:26:33.343Z,28.66
2018-08-09T15:29:02.209Z,28.62
2018-08-09T15:31:31.423Z,28.68
2018-08-09T15:34:00.358Z,28.50
2018-08-09T15:36:29.646Z,28.37
2018-08-09T15:38:58.552Z,28.39
2018-08-09T15:41:27.381Z,28.50
2018-08-09T15:43:56.495Z,28.57
2018-08-09T15:46:25.429Z,28.47
2018-08-09T15:48:54.434Z,28.36
2018-08-09T15:51:23.443Z,28.27
2018-08-09T15:53:52.254Z,28.26
2018-08-09T15:56:21.158Z,28.24
2018-08-09T15:58:49.930Z,28.22
2018-08-09T16:01:18.667Z,28.21
2018-08-09T16:03:47.442Z,28.16
2018-08-09T16:06:16.246Z,28.10
2018-08-09T16:08:45.056Z,28.16
2018-08-09T16:11:13.897Z,28.13
2018-08-09T16:13:42.698Z,28.16
2018-08-09T16:16:11.617Z,28.14
2018-08-09T16:18:40.618Z,28.18
2018-08-09T16:21:09.427Z,28.09
2018-08-09T16:23:38.313Z,27.76
2018-08-09T16:26:07.816Z,27.84
2018-08-09T16:28:36.655Z,27.72
2018-08-09T16:31:05.418Z,27.71
2018-08-09T16:33:34.331Z,27.74
2018-08-09T16:36:03.147Z,27.69
2018-08-09T16:38:31.930Z,27.65
2018-08-09T16:41:00.728Z,27.55
2018-08-09T16:43:29.561Z,27.53
2018-08-09T16:45:58.349Z,27.48
2018-08-09T16:48:27.133Z,27.48
2018-08-09T16:50:55.987Z,27.42
2018-08-09T16:53:24.750Z,27.29
2018-08-09T16:55:53.598Z,27.21
2018-08-09T16:58:22.460Z,27.06
2018-08-09T17:00:51.268Z,27.00
2018-08-09T17:03:20.118Z,26.94
2018-08-09T17:05:48.938Z,26.73
2018-08-09T17:08:18.147Z,26.66
2018-08-09T17:10:46.970Z,26.64
2018-08-09T17:13:15.825Z,26.59
2018-08-09T17:15:44.716Z,26.56
2018-08-09T17:18:13.532Z,26.56
2018-08-09T17:20:42.690Z,26.50
2018-08-09T17:23:11.534Z,26.47
2018-08-09T17:25:40.468Z,26.36
2018-08-09T17:28:10.334Z,26.28
2018-08-09T17:30:39.290Z,26.16
2018-08-09T17:33:08.193Z,26.07
2018-08-09T17:35:37.068Z,25.97
2018-08-09T17:38:05.965Z,25.92
2018-08-09T17:40:35.095Z,25.86
2018-08-09T17:43:04.693Z,25.81
2018-08-09T17:45:34.982Z,25.78
2018-08-09T17:48:04.318Z,25.72
2018-08-09T17:50:33.189Z,25.70
2018-08-09T17:53:03.214Z,25.68
2018-08-09T17:55:32.744Z,25.59
2018-08-09T17:58:01.792Z,25.53
2018-08-09T18:00:33.380Z,25.48
2018-08-09T18:03:03.395Z,25.45
2018-08-09T18:05:32.906Z,25.41
2018-08-09T18:08:02.496Z,25.40
2018-08-09T18:10:33.345Z,25.39
2018-08-09T18:13:02.249Z,25.35
2018-08-09T18:15:31.938Z,25.35
2018-08-09T18:18:01.918Z,25.33
2018-08-09T18:20:35.480Z,25.32
2018-08-09T18:23:04.673Z,25.33
2018-08-09T18:25:34.190Z,25.27
2018-08-09T18:28:03.122Z,25.24
2018-08-09T18:30:31.980Z,25.23
2018-08-09T18:33:00.750Z,25.18
2018-08-09T18:35:29.732Z,25.18
2018-08-09T18:37:58.546Z,25.11
2018-08-09T18:40:28.145Z,25.05
2018-08-09T18:42:57.003Z,25.05
2018-08-09T18:45:25.954Z,25.06
2018-08-09T18:47:55.412Z,25.03
2018-08-09T18:50:29.250Z,24.94
2018-08-09T18:52:58.527Z,24.95
2018-08-09T18:55:27.314Z,24.90
2018-08-09T18:57:56.211Z,24.90
2018-08-09T19:00:27.142Z,24.84
2018-08-09T19:02:56.177Z,24.78
2018-08-09T19:05:25.341Z,24.80
2018-08-09T19:07:54.356Z,24.75
2018-08-09T19:10:25.914Z,24.74
2018-08-09T19:12:55.184Z,24.67
2018-08-09T19:15:24.120Z,24.62
2018-08-09T19:17:53.073Z,24.53
2018-08-09T19:20:27.461Z,24.47
2018-08-09T19:22:56.461Z,24.47
2018-08-09T19:25:25.787Z,24.41
2018-08-09T19:27:54.629Z,24.36
2018-08-09T19:30:25.576Z,24.34
2018-08-09T19:32:54.539Z,24.29
2018-08-09T19:35:24.007Z,24.33
2018-08-09T19:37:52.950Z,24.29
2018-08-09T19:40:26.638Z,24.23
2018-08-09T19:42:55.600Z,24.23
2018-08-09T19:45:24.460Z,24.15
2018-08-09T19:47:53.304Z,24.09
2018-08-09T19:50:26.224Z,24.08
2018-08-09T19:52:55.441Z,24.07
2018-08-09T19:56:03.957Z,24.14
2018-08-09T19:58:32.847Z,24.15
2018-08-09T20:01:01.727Z,24.09
2018-08-09T20:03:30.554Z,24.06
2018-08-09T20:05:59.512Z,24.05
2018-08-09T20:08:28.738Z,24.04
2018-08-09T20:10:57.534Z,23.99
2018-08-09T20:13:26.442Z,23.93
2018-08-09T20:15:55.353Z,23.87
2018-08-09T20:18:24.170Z,23.83
2018-08-09T20:20:54.416Z,23.83
2018-08-09T20:23:23.795Z,23.84
2018-08-09T20:25:52.656Z,23.83
2018-08-09T20:28:21.600Z,23.79
2018-08-09T20:30:50.581Z,23.81
2018-08-09T20:33:19.447Z,23.77
2018-08-09T20:35:48.562Z,23.81
2018-08-09T20:38:17.625Z,23.79
2018-08-09T20:40:46.481Z,23.73
2018-08-09T20:43:15.348Z,23.69
2018-08-09T20:45:44.213Z,23.62
2018-08-09T20:48:13.546Z,23.64
2018-08-09T20:50:42.361Z,23.60
2018-08-09T20:53:11.166Z,23.53
2018-08-09T20:55:40.410Z,23.45
2018-08-09T20:58:09.451Z,23.44
2018-08-09T21:00:38.377Z,23.42
2018-08-09T21:03:07.316Z,23.43
2018-08-09T21:05:38.421Z,23.40
2018-08-09T21:08:07.470Z,23.43
2018-08-09T21:10:37.279Z,23.35
2018-08-09T21:13:06.046Z,23.28
2018-08-09T21:15:35.376Z,23.21
2018-08-09T21:18:04.355Z,23.16
2018-08-09T21:20:33.517Z,23.13
2018-08-09T21:23:02.552Z,23.12
2018-08-09T21:25:31.735Z,23.12
2018-08-09T21:28:00.927Z,23.07
2018-08-09T21:30:29.750Z,23.04
2018-08-09T21:32:59.014Z,23.04
2018-08-09T21:35:27.805Z,23.03
2018-08-09T21:37:57.076Z,23.01
2018-08-09T21:40:25.978Z,22.98
2018-08-09T21:42:54.819Z,22.97
2018-08-09T21:45:23.656Z,22.95
2018-08-09T21:47:52.464Z,22.90
2018-08-09T21:50:23.073Z,22.83
2018-08-09T21:52:51.964Z,22.73
2018-08-09T21:55:20.754Z,22.67
2018-08-09T21:57:49.575Z,22.64
2018-08-09T22:00:36.818Z,22.61
2018-08-09T22:03:06.138Z,22.61
2018-08-09T22:05:41.193Z,22.57
2018-08-09T22:08:15.203Z,22.58
2018-08-09T22:10:49.533Z,22.49
2018-08-09T22:13:23.459Z,22.41
2018-08-09T22:15:57.535Z,22.38
2018-08-09T22:18:32.119Z,22.31
2018-08-09T22:21:06.407Z,22.30
2018-08-09T22:23:35.291Z,22.25
2018-08-09T22:26:04.297Z,22.26
2018-08-09T22:28:33.699Z,22.22
2018-08-09T22:31:02.445Z,22.20
2018-08-09T22:33:31.621Z,22.15
2018-08-09T22:36:00.552Z,22.08
2018-08-09T22:38:29.828Z,22.01
2018-08-09T22:40:59.334Z,21.98
2018-08-09T22:43:28.219Z,21.89
2018-08-09T22:45:57.398Z,21.81
2018-08-09T22:48:26.611Z,21.81
2018-08-09T22:50:56.079Z,21.74
2018-08-09T22:53:25.315Z,21.72
2018-08-09T22:55:54.174Z,21.75
2018-08-09T22:58:23.059Z,21.82
2018-08-09T23:00:52.275Z,21.89
2018-08-09T23:03:21.480Z,21.93
2018-08-09T23:05:50.305Z,22.05
2018-08-09T23:08:19.106Z,22.13
2018-08-09T23:10:48.320Z,22.17
2018-08-09T23:13:17.471Z,22.20
2018-08-09T23:15:46.312Z,22.23
2018-08-09T23:18:15.160Z,22.22
2018-08-09T23:20:43.966Z,22.24
2018-08-09T23:23:12.724Z,22.19
2018-08-09T23:25:41.643Z,22.12
2018-08-09T23:28:10.484Z,22.05
2018-08-09T23:30:39.273Z,21.93
2018-08-09T23:33:08.109Z,21.92
2018-08-09T23:35:37.320Z,21.82
2018-08-09T23:38:06.207Z,21.80
2018-08-09T23:40:41.450Z,21.74
2018-08-09T23:43:10.279Z,21.68
2018-08-09T23:45:39.050Z,21.64
2018-08-09T23:48:07.903Z,21.67
2018-08-09T23:50:36.732Z,21.65
2018-08-09T23:53:05.583Z,21.62
2018-08-09T23:55:34.363Z,21.55
2018-08-09T23:58:03.124Z,21.56
